sensor_id;sensor_type;location;lat;lon;timestamp;pressure;altitude;pressure_sealevel;temperature
65290;BMP180;51893;59.754;10.110;2022-11-20T00:02:23;102360.00;;;0.40
65290;BMP180;51893;59.754;10.110;2022-11-20T00:04:51;102351.40;;;0.40
65290;BMP180;51893;59.754;10.110;2022-11-20T00:07:19;102351.00;;;0.40
65290;BMP180;51893;59.754;10.110;2022-11-20T00:09:48;102354.00;;;0.40
65290;BMP180;51893;59.754;10.110;2022-11-20T00:12:18;102348.80;;;0.40
65290;BMP180;51893;59.754;10.110;2022-11-20T00:14:47;102355.60;;;0.44
65290;BMP180;51893;59.754;10.110;2022-11-20T00:17:16;102350.40;;;0.40
65290;BMP180;51893;59.754;10.110;2022-11-20T00:19:44;102351.20;;;0.40
65290;BMP180;51893;59.754;10.110;2022-11-20T00:22:14;102350.20;;;0.40
65290;BMP180;51893;59.754;10.110;2022-11-20T00:24:41;102347.00;;;0.40
65290;BMP180;51893;59.754;10.110;2022-11-20T00:27:11;102342.40;;;0.40
65290;BMP180;51893;59.754;10.110;2022-11-20T00:29:39;102337.60;;;0.34
65290;BMP180;51893;59.754;10.110;2022-11-20T00:32:06;102332.40;;;0.30
65290;BMP180;51893;59.754;10.110;2022-11-20T00:34:37;102333.60;;;0.30
65290;BMP180;51893;59.754;10.110;2022-11-20T00:37:06;102328.60;;;0.26
65290;BMP180;51893;59.754;10.110;2022-11-20T00:39:37;102328.00;;;0.28
65290;BMP180;51893;59.754;10.110;2022-11-20T00:42:05;102332.00;;;0.30
65290;BMP180;51893;59.754;10.110;2022-11-20T00:44:33;102331.20;;;0.30
65290;BMP180;51893;59.754;10.110;2022-11-20T00:47:03;102328.80;;;0.30
65290;BMP180;51893;59.754;10.110;2022-11-20T00:49:40;102327.20;;;0.30
65290;BMP180;51893;59.754;10.110;2022-11-20T00:52:08;102321.00;;;0.32
65290;BMP180;51893;59.754;10.110;2022-11-20T00:54:38;102326.40;;;0.38
65290;BMP180;51893;59.754;10.110;2022-11-20T00:57:06;102320.00;;;0.34
65290;BMP180;51893;59.754;10.110;2022-11-20T00:59:34;102316.60;;;0.32
65290;BMP180;51893;59.754;10.110;2022-11-20T01:02:04;102313.60;;;0.30
65290;BMP180;51893;59.754;10.110;2022-11-20T01:04:32;102315.20;;;0.30
65290;BMP180;51893;59.754;10.110;2022-11-20T01:07:00;102315.20;;;0.30
65290;BMP180;51893;59.754;10.110;2022-11-20T01:09:28;102317.00;;;0.30
65290;BMP180;51893;59.754;10.110;2022-11-20T01:11:56;102310.20;;;0.32
65290;BMP180;51893;59.754;10.110;2022-11-20T01:14:25;102313.40;;;0.40
65290;BMP180;51893;59.754;10.110;2022-11-20T01:16:54;102311.20;;;0.40
65290;BMP180;51893;59.754;10.110;2022-11-20T01:19:24;102313.80;;;0.40
65290;BMP180;51893;59.754;10.110;2022-11-20T01:21:54;102312.80;;;0.40
65290;BMP180;51893;59.754;10.110;2022-11-20T01:24:25;102317.80;;;0.40
65290;BMP180;51893;59.754;10.110;2022-11-20T01:26:54;102310.00;;;0.40
65290;BMP180;51893;59.754;10.110;2022-11-20T01:29:24;102308.60;;;0.40
65290;BMP180;51893;59.754;10.110;2022-11-20T01:31:56;102309.40;;;0.40
65290;BMP180;51893;59.754;10.110;2022-11-20T01:34:25;102307.00;;;0.40
65290;BMP180;51893;59.754;10.110;2022-11-20T01:36:53;102310.60;;;0.40
65290;BMP180;51893;59.754;10.110;2022-11-20T01:39:25;102304.20;;;0.40
65290;BMP180;51893;59.754;10.110;2022-11-20T01:41:55;102309.60;;;0.50
65290;BMP180;51893;59.754;10.110;2022-11-20T01:45:00;102303.40;;;0.60
65290;BMP180;51893;59.754;10.110;2022-11-20T01:47:43;102305.00;;;0.60
65290;BMP180;51893;59.754;10.110;2022-11-20T01:50:24;102303.00;;;0.60
65290;BMP180;51893;59.754;10.110;2022-11-20T01:53:05;102300.40;;;0.70
65290;BMP180;51893;59.754;10.110;2022-11-20T01:55:42;102298.40;;;0.60
65290;BMP180;51893;59.754;10.110;2022-11-20T01:58:13;102295.40;;;0.60
65290;BMP180;51893;59.754;10.110;2022-11-20T02:00:43;102295.20;;;0.60
65290;BMP180;51893;59.754;10.110;2022-11-20T02:03:16;102295.20;;;0.60
65290;BMP180;51893;59.754;10.110;2022-11-20T02:06:43;102294.40;;;0.60
65290;BMP180;51893;59.754;10.110;2022-11-20T02:09:02;102291.20;;;0.60
65290;BMP180;51893;59.754;10.110;2022-11-20T02:11:31;102297.00;;;0.60
65290;BMP180;51893;59.754;10.110;2022-11-20T02:14:00;102291.20;;;0.60
65290;BMP180;51893;59.754;10.110;2022-11-20T02:16:39;102291.60;;;0.60
65290;BMP180;51893;59.754;10.110;2022-11-20T02:22:22;102286.40;;;0.60
65290;BMP180;51893;59.754;10.110;2022-11-20T02:24:52;102282.80;;;0.60
65290;BMP180;51893;59.754;10.110;2022-11-20T02:27:21;102278.00;;;0.60
65290;BMP180;51893;59.754;10.110;2022-11-20T02:30:01;102273.80;;;0.60
65290;BMP180;51893;59.754;10.110;2022-11-20T02:32:35;102269.00;;;0.60
65290;BMP180;51893;59.754;10.110;2022-11-20T02:37:55;102262.20;;;0.60
65290;BMP180;51893;59.754;10.110;2022-11-20T02:40:24;102262.20;;;0.60
65290;BMP180;51893;59.754;10.110;2022-11-20T02:42:56;102262.60;;;0.60
65290;BMP180;51893;59.754;10.110;2022-11-20T02:45:25;102264.40;;;0.64
65290;BMP180;51893;59.754;10.110;2022-11-20T02:47:55;102261.00;;;0.60
65290;BMP180;51893;59.754;10.110;2022-11-20T02:50:23;102261.20;;;0.54
65290;BMP180;51893;59.754;10.110;2022-11-20T02:52:59;102266.20;;;0.50
65290;BMP180;51893;59.754;10.110;2022-11-20T02:55:29;102260.80;;;0.50
65290;BMP180;51893;59.754;10.110;2022-11-20T02:57:57;102251.60;;;0.50
65290;BMP180;51893;59.754;10.110;2022-11-20T03:00:26;102248.20;;;0.50
65290;BMP180;51893;59.754;10.110;2022-11-20T03:02:54;102246.80;;;0.50
65290;BMP180;51893;59.754;10.110;2022-11-20T03:05:22;102239.80;;;0.50
65290;BMP180;51893;59.754;10.110;2022-11-20T03:07:50;102237.80;;;0.50
65290;BMP180;51893;59.754;10.110;2022-11-20T03:10:21;102236.20;;;0.50
65290;BMP180;51893;59.754;10.110;2022-11-20T03:12:54;102230.60;;;0.50
65290;BMP180;51893;59.754;10.110;2022-11-20T03:15:27;102229.40;;;0.54
65290;BMP180;51893;59.754;10.110;2022-11-20T03:17:57;102231.80;;;0.50
65290;BMP180;51893;59.754;10.110;2022-11-20T03:20:25;102229.00;;;0.50
65290;BMP180;51893;59.754;10.110;2022-11-20T03:22:55;102229.80;;;0.50
65290;BMP180;51893;59.754;10.110;2022-11-20T03:25:23;102227.40;;;0.50
65290;BMP180;51893;59.754;10.110;2022-11-20T03:27:56;102225.60;;;0.50
65290;BMP180;51893;59.754;10.110;2022-11-20T03:30:24;102220.80;;;0.50
65290;BMP180;51893;59.754;10.110;2022-11-20T03:32:58;102216.80;;;0.50
65290;BMP180;51893;59.754;10.110;2022-11-20T03:35:26;102217.60;;;0.40
65290;BMP180;51893;59.754;10.110;2022-11-20T03:37:57;102213.00;;;0.42
65290;BMP180;51893;59.754;10.110;2022-11-20T03:40:25;102210.40;;;0.50
65290;BMP180;51893;59.754;10.110;2022-11-20T03:42:53;102211.60;;;0.50
65290;BMP180;51893;59.754;10.110;2022-11-20T03:45:22;102209.40;;;0.50
65290;BMP180;51893;59.754;10.110;2022-11-20T03:47:50;102206.40;;;0.50
65290;BMP180;51893;59.754;10.110;2022-11-20T03:50:19;102200.60;;;0.50
65290;BMP180;51893;59.754;10.110;2022-11-20T03:52:50;102202.60;;;0.50
65290;BMP180;51893;59.754;10.110;2022-11-20T03:55:18;102196.40;;;0.52
65290;BMP180;51893;59.754;10.110;2022-11-20T03:57:48;102193.20;;;0.58
65290;BMP180;51893;59.754;10.110;2022-11-20T04:00:16;102191.40;;;0.60
65290;BMP180;51893;59.754;10.110;2022-11-20T04:02:44;102189.00;;;0.60
65290;BMP180;51893;59.754;10.110;2022-11-20T04:05:16;102184.60;;;0.66
65290;BMP180;51893;59.754;10.110;2022-11-20T04:07:46;102184.40;;;0.70
65290;BMP180;51893;59.754;10.110;2022-11-20T04:10:13;102178.80;;;0.70
65290;BMP180;51893;59.754;10.110;2022-11-20T04:12:43;102178.80;;;0.70
65290;BMP180;51893;59.754;10.110;2022-11-20T04:15:12;102185.00;;;0.70
65290;BMP180;51893;59.754;10.110;2022-11-20T04:17:41;102178.60;;;0.66
65290;BMP180;51893;59.754;10.110;2022-11-20T04:20:10;102173.40;;;0.60
65290;BMP180;51893;59.754;10.110;2022-11-20T04:22:39;102179.20;;;0.60
65290;BMP180;51893;59.754;10.110;2022-11-20T04:25:09;102177.00;;;0.50
65290;BMP180;51893;59.754;10.110;2022-11-20T04:27:38;102174.40;;;0.50
65290;BMP180;51893;59.754;10.110;2022-11-20T04:30:08;102171.20;;;0.50
65290;BMP180;51893;59.754;10.110;2022-11-20T04:32:35;102163.00;;;0.50
65290;BMP180;51893;59.754;10.110;2022-11-20T04:35:10;102169.20;;;0.40
65290;BMP180;51893;59.754;10.110;2022-11-20T04:37:38;102167.60;;;0.40
65290;BMP180;51893;59.754;10.110;2022-11-20T04:40:10;102160.60;;;0.46
65290;BMP180;51893;59.754;10.110;2022-11-20T04:42:38;102162.00;;;0.42
65290;BMP180;51893;59.754;10.110;2022-11-20T04:45:08;102164.80;;;0.40
65290;BMP180;51893;59.754;10.110;2022-11-20T04:47:41;102163.80;;;0.40
65290;BMP180;51893;59.754;10.110;2022-11-20T04:50:09;102153.20;;;0.40
65290;BMP180;51893;59.754;10.110;2022-11-20T04:52:40;102156.00;;;0.40
65290;BMP180;51893;59.754;10.110;2022-11-20T04:55:10;102156.40;;;0.40
65290;BMP180;51893;59.754;10.110;2022-11-20T04:57:39;102153.00;;;0.40
65290;BMP180;51893;59.754;10.110;2022-11-20T05:00:08;102146.80;;;0.40
65290;BMP180;51893;59.754;10.110;2022-11-20T05:02:39;102153.20;;;0.50
65290;BMP180;51893;59.754;10.110;2022-11-20T05:05:10;102157.80;;;0.50
65290;BMP180;51893;59.754;10.110;2022-11-20T05:07:39;102153.40;;;0.50
65290;BMP180;51893;59.754;10.110;2022-11-20T05:10:08;102146.40;;;0.50
65290;BMP180;51893;59.754;10.110;2022-11-20T05:12:36;102148.40;;;0.46
65290;BMP180;51893;59.754;10.110;2022-11-20T05:15:06;102150.40;;;0.40
65290;BMP180;51893;59.754;10.110;2022-11-20T05:17:37;102152.40;;;0.40
65290;BMP180;51893;59.754;10.110;2022-11-20T05:20:09;102151.80;;;0.40
65290;BMP180;51893;59.754;10.110;2022-11-20T05:22:38;102151.20;;;0.40
65290;BMP180;51893;59.754;10.110;2022-11-20T05:25:07;102146.20;;;0.40
65290;BMP180;51893;59.754;10.110;2022-11-20T05:27:36;102142.60;;;0.40
65290;BMP180;51893;59.754;10.110;2022-11-20T05:30:08;102147.20;;;0.40
65290;BMP180;51893;59.754;10.110;2022-11-20T05:32:39;102149.60;;;0.40
65290;BMP180;51893;59.754;10.110;2022-11-20T05:35:07;102146.00;;;0.40
65290;BMP180;51893;59.754;10.110;2022-11-20T05:37:36;102139.20;;;0.40
65290;BMP180;51893;59.754;10.110;2022-11-20T05:40:08;102137.40;;;0.40
65290;BMP180;51893;59.754;10.110;2022-11-20T05:42:39;102133.80;;;0.30
65290;BMP180;51893;59.754;10.110;2022-11-20T05:45:08;102132.20;;;0.30
65290;BMP180;51893;59.754;10.110;2022-11-20T05:47:37;102133.00;;;0.32
65290;BMP180;51893;59.754;10.110;2022-11-20T05:50:07;102124.80;;;0.40
65290;BMP180;51893;59.754;10.110;2022-11-20T05:52:35;102119.40;;;0.38
65290;BMP180;51893;59.754;10.110;2022-11-20T05:55:06;102122.80;;;0.40
65290;BMP180;51893;59.754;10.110;2022-11-20T05:57:36;102114.80;;;0.40
65290;BMP180;51893;59.754;10.110;2022-11-20T06:00:05;102112.20;;;0.38
65290;BMP180;51893;59.754;10.110;2022-11-20T06:02:36;102109.60;;;0.40
65290;BMP180;51893;59.754;10.110;2022-11-20T06:05:05;102107.40;;;0.40
65290;BMP180;51893;59.754;10.110;2022-11-20T06:07:37;102104.40;;;0.50
65290;BMP180;51893;59.754;10.110;2022-11-20T06:10:11;102096.60;;;0.50
65290;BMP180;51893;59.754;10.110;2022-11-20T06:12:41;102104.00;;;0.50
65290;BMP180;51893;59.754;10.110;2022-11-20T06:15:13;102099.40;;;0.46
65290;BMP180;51893;59.754;10.110;2022-11-20T06:17:46;102097.60;;;0.50
65290;BMP180;51893;59.754;10.110;2022-11-20T06:20:15;102098.80;;;0.50
65290;BMP180;51893;59.754;10.110;2022-11-20T06:22:44;102097.40;;;0.50
65290;BMP180;51893;59.754;10.110;2022-11-20T06:25:12;102094.80;;;0.44
65290;BMP180;51893;59.754;10.110;2022-11-20T06:27:41;102087.40;;;0.50
65290;BMP180;51893;59.754;10.110;2022-11-20T06:30:12;102093.00;;;0.40
65290;BMP180;51893;59.754;10.110;2022-11-20T06:32:40;102097.20;;;0.40
65290;BMP180;51893;59.754;10.110;2022-11-20T06:35:16;102097.20;;;0.40
65290;BMP180;51893;59.754;10.110;2022-11-20T06:37:47;102094.60;;;0.40
65290;BMP180;51893;59.754;10.110;2022-11-20T06:40:19;102091.80;;;0.40
65290;BMP180;51893;59.754;10.110;2022-11-20T06:42:47;102090.00;;;0.40
65290;BMP180;51893;59.754;10.110;2022-11-20T06:45:15;102078.40;;;0.40
65290;BMP180;51893;59.754;10.110;2022-11-20T06:47:52;102080.00;;;0.34
65290;BMP180;51893;59.754;10.110;2022-11-20T06:50:20;102082.40;;;0.40
65290;BMP180;51893;59.754;10.110;2022-11-20T06:52:49;102074.80;;;0.40
65290;BMP180;51893;59.754;10.110;2022-11-20T06:55:18;102073.40;;;0.44
65290;BMP180;51893;59.754;10.110;2022-11-20T06:57:46;102063.00;;;0.42
65290;BMP180;51893;59.754;10.110;2022-11-20T07:00:21;102055.80;;;0.50
65290;BMP180;51893;59.754;10.110;2022-11-20T07:02:49;102056.60;;;0.50
65290;BMP180;51893;59.754;10.110;2022-11-20T07:05:20;102058.80;;;0.50
65290;BMP180;51893;59.754;10.110;2022-11-20T07:07:51;102057.60;;;0.40
65290;BMP180;51893;59.754;10.110;2022-11-20T07:10:19;102046.60;;;0.40
65290;BMP180;51893;59.754;10.110;2022-11-20T07:12:53;102049.20;;;0.40
65290;BMP180;51893;59.754;10.110;2022-11-20T07:15:23;102053.40;;;0.40
65290;BMP180;51893;59.754;10.110;2022-11-20T07:17:52;102048.20;;;0.38
65290;BMP180;51893;59.754;10.110;2022-11-20T07:20:25;102054.20;;;0.40
65290;BMP180;51893;59.754;10.110;2022-11-20T07:22:59;102050.60;;;0.40
65290;BMP180;51893;59.754;10.110;2022-11-20T07:25:28;102051.60;;;0.40
65290;BMP180;51893;59.754;10.110;2022-11-20T07:28:00;102058.20;;;0.40
65290;BMP180;51893;59.754;10.110;2022-11-20T07:30:30;102054.80;;;0.38
65290;BMP180;51893;59.754;10.110;2022-11-20T07:32:59;102065.20;;;0.40
65290;BMP180;51893;59.754;10.110;2022-11-20T07:35:27;102060.00;;;0.36
65290;BMP180;51893;59.754;10.110;2022-11-20T07:37:56;102057.80;;;0.30
65290;BMP180;51893;59.754;10.110;2022-11-20T07:40:27;102055.20;;;0.32
65290;BMP180;51893;59.754;10.110;2022-11-20T07:42:55;102045.60;;;0.30
65290;BMP180;51893;59.754;10.110;2022-11-20T07:45:25;102039.60;;;0.30
65290;BMP180;51893;59.754;10.110;2022-11-20T07:47:54;102033.40;;;0.30
65290;BMP180;51893;59.754;10.110;2022-11-20T07:50:23;102033.80;;;0.40
65290;BMP180;51893;59.754;10.110;2022-11-20T07:52:51;102027.40;;;0.40
65290;BMP180;51893;59.754;10.110;2022-11-20T07:55:22;102028.20;;;0.40
65290;BMP180;51893;59.754;10.110;2022-11-20T07:57:55;102032.20;;;0.40
65290;BMP180;51893;59.754;10.110;2022-11-20T08:00:27;102030.60;;;0.40
65290;BMP180;51893;59.754;10.110;2022-11-20T08:02:56;102033.80;;;0.40
65290;BMP180;51893;59.754;10.110;2022-11-20T08:05:27;102038.40;;;0.40
65290;BMP180;51893;59.754;10.110;2022-11-20T08:08:04;102031.00;;;0.32
65290;BMP180;51893;59.754;10.110;2022-11-20T08:10:36;102031.80;;;0.36
65290;BMP180;51893;59.754;10.110;2022-11-20T08:13:09;102034.80;;;0.38
65290;BMP180;51893;59.754;10.110;2022-11-20T08:15:59;102036.20;;;0.38
65290;BMP180;51893;59.754;10.110;2022-11-20T08:18:29;102034.20;;;0.36
65290;BMP180;51893;59.754;10.110;2022-11-20T08:21:04;102022.40;;;0.34
65290;BMP180;51893;59.754;10.110;2022-11-20T08:23:37;102029.00;;;0.40
65290;BMP180;51893;59.754;10.110;2022-11-20T08:26:28;102029.00;;;0.40
65290;BMP180;51893;59.754;10.110;2022-11-20T08:29:00;102017.80;;;0.40
65290;BMP180;51893;59.754;10.110;2022-11-20T08:31:36;102016.20;;;0.40
65290;BMP180;51893;59.754;10.110;2022-11-20T08:34:24;102010.80;;;0.40
65290;BMP180;51893;59.754;10.110;2022-11-20T08:36:52;102008.80;;;0.40
65290;BMP180;51893;59.754;10.110;2022-11-20T08:39:29;102006.80;;;0.50
65290;BMP180;51893;59.754;10.110;2022-11-20T08:42:00;102005.60;;;0.52
65290;BMP180;51893;59.754;10.110;2022-11-20T08:44:40;102000.60;;;0.60
65290;BMP180;51893;59.754;10.110;2022-11-20T08:47:15;101997.40;;;0.60
65290;BMP180;51893;59.754;10.110;2022-11-20T08:49:44;101993.60;;;0.60
65290;BMP180;51893;59.754;10.110;2022-11-20T08:52:14;101987.20;;;0.60
65290;BMP180;51893;59.754;10.110;2022-11-20T08:54:43;101985.40;;;0.60
65290;BMP180;51893;59.754;10.110;2022-11-20T08:57:12;101990.40;;;0.60
65290;BMP180;51893;59.754;10.110;2022-11-20T08:59:42;101988.20;;;0.64
65290;BMP180;51893;59.754;10.110;2022-11-20T09:02:31;101989.20;;;0.70
65290;BMP180;51893;59.754;10.110;2022-11-20T09:05:02;101987.00;;;0.70
65290;BMP180;51893;59.754;10.110;2022-11-20T09:07:37;101981.20;;;0.70
65290;BMP180;51893;59.754;10.110;2022-11-20T09:10:07;101984.20;;;0.70
65290;BMP180;51893;59.754;10.110;2022-11-20T09:12:52;101974.00;;;0.70
65290;BMP180;51893;59.754;10.110;2022-11-20T09:15:27;101971.60;;;0.70
65290;BMP180;51893;59.754;10.110;2022-11-20T09:18:04;101970.40;;;0.70
65290;BMP180;51893;59.754;10.110;2022-11-20T09:20:34;101967.00;;;0.70
65290;BMP180;51893;59.754;10.110;2022-11-20T09:23:03;101963.60;;;0.70
65290;BMP180;51893;59.754;10.110;2022-11-20T09:25:35;101962.60;;;0.70
65290;BMP180;51893;59.754;10.110;2022-11-20T09:28:09;101946.20;;;0.70
65290;BMP180;51893;59.754;10.110;2022-11-20T09:30:37;101944.20;;;0.80
65290;BMP180;51893;59.754;10.110;2022-11-20T09:33:08;101944.80;;;0.80
65290;BMP180;51893;59.754;10.110;2022-11-20T09:35:38;101932.00;;;0.80
65290;BMP180;51893;59.754;10.110;2022-11-20T09:38:11;101930.40;;;0.80
65290;BMP180;51893;59.754;10.110;2022-11-20T09:41:03;101927.20;;;0.80
65290;BMP180;51893;59.754;10.110;2022-11-20T09:47:20;101928.00;;;0.82
65290;BMP180;51893;59.754;10.110;2022-11-20T09:53:30;101927.40;;;0.90
65290;BMP180;51893;59.754;10.110;2022-11-20T09:56:21;101922.80;;;0.90
65290;BMP180;51893;59.754;10.110;2022-11-20T09:58:55;101922.40;;;0.80
65290;BMP180;51893;59.754;10.110;2022-11-20T10:01:41;101914.40;;;0.80
65290;BMP180;51893;59.754;10.110;2022-11-20T10:04:20;101906.00;;;0.80
65290;BMP180;51893;59.754;10.110;2022-11-20T10:07:41;101890.20;;;0.80
65290;BMP180;51893;59.754;10.110;2022-11-20T10:14:16;101882.80;;;0.70
65290;BMP180;51893;59.754;10.110;2022-11-20T10:17:15;101882.80;;;0.70
65290;BMP180;51893;59.754;10.110;2022-11-20T10:20:24;101878.60;;;0.78
65290;BMP180;51893;59.754;10.110;2022-11-20T10:31:47;101852.40;;;0.70
65290;BMP180;51893;59.754;10.110;2022-11-20T10:34:21;101845.80;;;0.70
65290;BMP180;51893;59.754;10.110;2022-11-20T10:37:05;101840.20;;;0.70
65290;BMP180;51893;59.754;10.110;2022-11-20T10:39:59;101833.40;;;0.70
65290;BMP180;51893;59.754;10.110;2022-11-20T10:43:32;101837.60;;;0.70
65290;BMP180;51893;59.754;10.110;2022-11-20T10:46:33;101831.00;;;0.72
65290;BMP180;51893;59.754;10.110;2022-11-20T10:49:16;101831.60;;;0.80
65290;BMP180;51893;59.754;10.110;2022-11-20T10:52:56;101826.00;;;0.88
65290;BMP180;51893;59.754;10.110;2022-11-20T10:55:57;101813.60;;;0.90
65290;BMP180;51893;59.754;10.110;2022-11-20T10:59:24;101809.20;;;0.90
65290;BMP180;51893;59.754;10.110;2022-11-20T11:02:37;101806.20;;;1.00
65290;BMP180;51893;59.754;10.110;2022-11-20T11:07:59;101814.60;;;1.10
65290;BMP180;51893;59.754;10.110;2022-11-20T11:13:24;101823.60;;;1.20
65290;BMP180;51893;59.754;10.110;2022-11-20T11:15:55;101825.20;;;1.30
65290;BMP180;51893;59.754;10.110;2022-11-20T11:18:31;101827.00;;;1.30
65290;BMP180;51893;59.754;10.110;2022-11-20T11:21:03;101823.00;;;1.38
65290;BMP180;51893;59.754;10.110;2022-11-20T11:23:39;101818.80;;;1.30
65290;BMP180;51893;59.754;10.110;2022-11-20T11:26:23;101821.20;;;1.38
65290;BMP180;51893;59.754;10.110;2022-11-20T11:28:55;101817.20;;;1.40
65290;BMP180;51893;59.754;10.110;2022-11-20T11:31:35;101813.40;;;1.40
65290;BMP180;51893;59.754;10.110;2022-11-20T11:34:16;101802.60;;;1.40
65290;BMP180;51893;59.754;10.110;2022-11-20T11:37:18;101801.80;;;1.40
65290;BMP180;51893;59.754;10.110;2022-11-20T11:39:50;101799.20;;;1.30
65290;BMP180;51893;59.754;10.110;2022-11-20T11:43:06;101798.40;;;1.30
65290;BMP180;51893;59.754;10.110;2022-11-20T11:46:32;101795.60;;;1.40
65290;BMP180;51893;59.754;10.110;2022-11-20T11:49:14;101790.80;;;1.40
65290;BMP180;51893;59.754;10.110;2022-11-20T11:54:55;101787.20;;;1.40
65290;BMP180;51893;59.754;10.110;2022-11-20T12:02:12;101785.20;;;1.40
65290;BMP180;51893;59.754;10.110;2022-11-20T12:05:05;101781.20;;;1.40
65290;BMP180;51893;59.754;10.110;2022-11-20T12:16:39;101749.20;;;1.40
65290;BMP180;51893;59.754;10.110;2022-11-20T12:19:14;101744.80;;;1.38
65290;BMP180;51893;59.754;10.110;2022-11-20T12:25:27;101735.00;;;1.28
65290;BMP180;51893;59.754;10.110;2022-11-20T12:28:48;101721.40;;;1.20
65290;BMP180;51893;59.754;10.110;2022-11-20T12:35:05;101710.80;;;1.20
65290;BMP180;51893;59.754;10.110;2022-11-20T12:41:11;101724.40;;;1.20
65290;BMP180;51893;59.754;10.110;2022-11-20T12:44:41;101727.80;;;1.20
65290;BMP180;51893;59.754;10.110;2022-11-20T12:48:12;101721.20;;;1.20
65290;BMP180;51893;59.754;10.110;2022-11-20T12:54:30;101707.40;;;1.20
65290;BMP180;51893;59.754;10.110;2022-11-20T12:57:55;101701.60;;;1.20
65290;BMP180;51893;59.754;10.110;2022-11-20T13:00:30;101705.20;;;1.20
65290;BMP180;51893;59.754;10.110;2022-11-20T13:06:19;101695.00;;;1.20
65290;BMP180;51893;59.754;10.110;2022-11-20T13:08:54;101696.40;;;1.22
65290;BMP180;51893;59.754;10.110;2022-11-20T13:15:29;101700.20;;;1.20
65290;BMP180;51893;59.754;10.110;2022-11-20T13:18:01;101699.80;;;1.20
65290;BMP180;51893;59.754;10.110;2022-11-20T13:20:34;101701.80;;;1.26
65290;BMP180;51893;59.754;10.110;2022-11-20T13:23:03;101695.00;;;1.30
65290;BMP180;51893;59.754;10.110;2022-11-20T13:25:38;101698.20;;;1.30
65290;BMP180;51893;59.754;10.110;2022-11-20T13:30:54;101684.40;;;1.30
65290;BMP180;51893;59.754;10.110;2022-11-20T13:33:37;101685.20;;;1.30
65290;BMP180;51893;59.754;10.110;2022-11-20T13:38:56;101677.00;;;1.40
65290;BMP180;51893;59.754;10.110;2022-11-20T13:41:34;101669.80;;;1.40
65290;BMP180;51893;59.754;10.110;2022-11-20T13:44:35;101669.00;;;1.40
65290;BMP180;51893;59.754;10.110;2022-11-20T13:47:25;101666.00;;;1.40
65290;BMP180;51893;59.754;10.110;2022-11-20T13:49:57;101665.00;;;1.40
65290;BMP180;51893;59.754;10.110;2022-11-20T13:53:21;101663.40;;;1.44
65290;BMP180;51893;59.754;10.110;2022-11-20T13:58:53;101661.20;;;1.60
65290;BMP180;51893;59.754;10.110;2022-11-20T14:01:34;101659.80;;;1.60
65290;BMP180;51893;59.754;10.110;2022-11-20T14:04:08;101653.20;;;1.60
65290;BMP180;51893;59.754;10.110;2022-11-20T14:06:46;101654.40;;;1.60
65290;BMP180;51893;59.754;10.110;2022-11-20T14:09:31;101652.00;;;1.60
65290;BMP180;51893;59.754;10.110;2022-11-20T14:11:59;101648.80;;;1.50
65290;BMP180;51893;59.754;10.110;2022-11-20T14:14:30;101644.20;;;1.50
65290;BMP180;51893;59.754;10.110;2022-11-20T14:17:23;101640.60;;;1.48
65290;BMP180;51893;59.754;10.110;2022-11-20T14:19:55;101637.60;;;1.42
65290;BMP180;51893;59.754;10.110;2022-11-20T14:22:27;101633.40;;;1.40
65290;BMP180;51893;59.754;10.110;2022-11-20T14:27:53;101633.40;;;1.38
65290;BMP180;51893;59.754;10.110;2022-11-20T14:30:42;101628.20;;;1.30
65290;BMP180;51893;59.754;10.110;2022-11-20T14:33:14;101629.80;;;1.30
65290;BMP180;51893;59.754;10.110;2022-11-20T14:35:51;101629.60;;;1.30
65290;BMP180;51893;59.754;10.110;2022-11-20T14:38:31;101626.80;;;1.30
65290;BMP180;51893;59.754;10.110;2022-11-20T14:41:14;101621.00;;;1.26
65290;BMP180;51893;59.754;10.110;2022-11-20T14:43:56;101618.40;;;1.20
65290;BMP180;51893;59.754;10.110;2022-11-20T14:46:27;101615.00;;;1.24
65290;BMP180;51893;59.754;10.110;2022-11-20T14:49:00;101599.80;;;1.30
65290;BMP180;51893;59.754;10.110;2022-11-20T14:51:39;101600.00;;;1.24
65290;BMP180;51893;59.754;10.110;2022-11-20T14:54:17;101601.60;;;1.20
65290;BMP180;51893;59.754;10.110;2022-11-20T14:56:58;101601.60;;;1.20
65290;BMP180;51893;59.754;10.110;2022-11-20T14:59:33;101597.00;;;1.20
65290;BMP180;51893;59.754;10.110;2022-11-20T15:02:11;101601.20;;;1.20
65290;BMP180;51893;59.754;10.110;2022-11-20T15:05:01;101599.60;;;1.20
65290;BMP180;51893;59.754;10.110;2022-11-20T15:07:41;101583.80;;;1.30
65290;BMP180;51893;59.754;10.110;2022-11-20T15:10:26;101581.40;;;1.40
65290;BMP180;51893;59.754;10.110;2022-11-20T15:13:10;101580.40;;;1.40
65290;BMP180;51893;59.754;10.110;2022-11-20T15:15:55;101568.00;;;1.40
65290;BMP180;51893;59.754;10.110;2022-11-20T15:18:41;101562.00;;;1.40
65290;BMP180;51893;59.754;10.110;2022-11-20T15:21:18;101557.20;;;1.30
65290;BMP180;51893;59.754;10.110;2022-11-20T15:24:00;101556.20;;;1.30
65290;BMP180;51893;59.754;10.110;2022-11-20T15:26:31;101556.60;;;1.20
65290;BMP180;51893;59.754;10.110;2022-11-20T15:29:04;101549.00;;;1.12
65290;BMP180;51893;59.754;10.110;2022-11-20T15:31:33;101549.60;;;1.10
65290;BMP180;51893;59.754;10.110;2022-11-20T15:34:09;101543.20;;;1.10
65290;BMP180;51893;59.754;10.110;2022-11-20T15:36:43;101547.20;;;1.10
65290;BMP180;51893;59.754;10.110;2022-11-20T15:39:13;101544.00;;;1.10
65290;BMP180;51893;59.754;10.110;2022-11-20T15:41:46;101544.60;;;1.10
65290;BMP180;51893;59.754;10.110;2022-11-20T15:44:17;101537.60;;;1.10
65290;BMP180;51893;59.754;10.110;2022-11-20T15:46:46;101542.20;;;1.10
65290;BMP180;51893;59.754;10.110;2022-11-20T15:49:16;101541.20;;;1.16
65290;BMP180;51893;59.754;10.110;2022-11-20T15:51:52;101542.60;;;1.20
65290;BMP180;51893;59.754;10.110;2022-11-20T15:54:24;101540.60;;;1.20
65290;BMP180;51893;59.754;10.110;2022-11-20T15:56:56;101539.40;;;1.20
65290;BMP180;51893;59.754;10.110;2022-11-20T15:59:27;101536.80;;;1.20
65290;BMP180;51893;59.754;10.110;2022-11-20T16:02:07;101530.40;;;1.30
65290;BMP180;51893;59.754;10.110;2022-11-20T16:04:44;101533.80;;;1.30